createdAt,value
2022-12-19T00:02:21.801Z,2.50
2022-12-19T00:04:50.416Z,1.95
2022-12-19T00:07:18.797Z,2.33
2022-12-19T00:09:49.467Z,1.80
2022-12-19T00:12:19.471Z,1.90
2022-12-19T00:14:49.623Z,2.70
2022-12-19T00:17:18.365Z,2.35
2022-12-19T00:19:46.706Z,2.55
2022-12-19T00:22:15.053Z,2.85
2022-12-19T00:24:45.994Z,2.28
2022-12-19T00:27:15.698Z,1.98
2022-12-19T00:29:46.780Z,2.13
2022-12-19T00:32:16.644Z,2.25
2022-12-19T00:34:49.893Z,2.33
2022-12-19T00:37:18.219Z,2.63
2022-12-19T00:39:46.682Z,1.83
2022-12-19T00:42:16.945Z,1.92
2022-12-19T00:44:46.178Z,2.58
2022-12-19T00:47:14.529Z,3.05
2022-12-19T00:49:44.202Z,2.75
2022-12-19T00:52:17.333Z,2.92
2022-12-19T00:54:45.680Z,1.85
2022-12-19T00:57:14.090Z,3.20
2022-12-19T00:59:43.980Z,3.55
2022-12-19T01:02:14.280Z,3.58
2022-12-19T01:04:42.829Z,3.33
2022-12-19T01:07:14.100Z,2.75
2022-12-19T01:09:42.815Z,2.92
2022-12-19T01:12:30.297Z,2.70
2022-12-19T01:15:04.587Z,2.95
2022-12-19T01:17:43.681Z,3.47
2022-12-19T01:20:17.655Z,2.78
2022-12-19T01:22:49.646Z,3.25
2022-12-19T01:25:20.474Z,3.03
2022-12-19T01:27:48.854Z,3.30
2022-12-19T01:30:18.990Z,3.25
2022-12-19T01:32:48.003Z,3.42
2022-12-19T01:35:21.122Z,2.92
2022-12-19T01:37:51.508Z,3.25
2022-12-19T01:40:20.185Z,3.13
2022-12-19T01:42:49.477Z,2.67
2022-12-19T01:45:33.768Z,2.75
2022-12-19T01:48:12.712Z,3.35
2022-12-19T01:50:58.439Z,2.20
2022-12-19T01:53:45.766Z,1.85
2022-12-19T01:56:23.717Z,3.17
2022-12-19T01:59:01.759Z,3.28
2022-12-19T02:01:52.043Z,2.08
2022-12-19T02:04:25.080Z,3.55
2022-12-19T02:06:56.940Z,3.20
2022-12-19T02:09:26.141Z,3.08
2022-12-19T02:11:55.027Z,3.25
2022-12-19T02:14:25.604Z,2.72
2022-12-19T02:17:19.527Z,3.58
2022-12-19T02:20:13.573Z,3.20
2022-12-19T02:22:52.345Z,3.05
2022-12-19T02:25:41.249Z,2.28
2022-12-19T02:28:47.178Z,2.60
2022-12-19T02:31:18.842Z,2.97
2022-12-19T02:33:56.744Z,2.95
2022-12-19T02:36:30.537Z,2.83
2022-12-19T02:39:05.665Z,3.38
2022-12-19T02:41:44.377Z,3.17
2022-12-19T02:44:21.843Z,2.70
2022-12-19T02:46:53.493Z,2.67
2022-12-19T02:49:30.513Z,3.40
2022-12-19T02:52:11.720Z,2.35
2022-12-19T02:54:44.887Z,3.25
2022-12-19T02:57:19.056Z,2.35
2022-12-19T02:59:57.280Z,2.67
2022-12-19T03:02:36.163Z,2.60
2022-12-19T03:05:10.271Z,2.28
2022-12-19T03:07:44.087Z,2.58
2022-12-19T03:10:18.883Z,2.83
2022-12-19T03:15:17.092Z,3.22
2022-12-19T03:17:47.168Z,3.15
2022-12-19T03:20:23.643Z,3.33
2022-12-19T03:22:52.065Z,3.40
2022-12-19T03:25:22.470Z,2.83
2022-12-19T03:27:51.857Z,3.15
2022-12-19T03:30:20.414Z,2.55
2022-12-19T03:32:50.999Z,3.38
2022-12-19T03:35:21.937Z,3.00
2022-12-19T03:37:51.856Z,2.80
2022-12-19T03:40:23.640Z,3.28
2022-12-19T03:43:09.451Z,3.15
2022-12-19T03:45:51.314Z,2.85
2022-12-19T03:48:25.895Z,3.33
2022-12-19T03:51:00.928Z,3.47
2022-12-19T03:53:38.320Z,3.00
2022-12-19T03:56:12.802Z,3.33
2022-12-19T03:58:44.034Z,2.88
2022-12-19T04:01:12.738Z,3.55
2022-12-19T04:03:42.728Z,3.30
2022-12-19T04:06:11.847Z,3.10
2022-12-19T04:08:40.570Z,3.53
2022-12-19T04:11:12.286Z,3.03
2022-12-19T04:13:44.160Z,3.40
2022-12-19T04:16:15.328Z,3.65
2022-12-19T04:18:51.352Z,3.28
2022-12-19T04:21:21.708Z,3.80
2022-12-19T04:23:53.789Z,4.22
2022-12-19T04:26:23.120Z,3.70
2022-12-19T04:28:54.809Z,4.15
2022-12-19T04:31:24.792Z,3.78
2022-12-19T04:33:55.317Z,3.75
2022-12-19T04:36:25.106Z,3.63
2022-12-19T04:38:53.793Z,3.10
2022-12-19T04:41:22.379Z,2.55
2022-12-19T04:43:51.284Z,3.58
2022-12-19T04:46:21.910Z,3.47
2022-12-19T04:48:50.644Z,3.85
2022-12-19T04:51:20.521Z,3.60
2022-12-19T04:53:48.883Z,3.03
2022-12-19T04:56:17.421Z,3.90
2022-12-19T04:58:49.802Z,2.92
2022-12-19T05:01:18.783Z,3.88
2022-12-19T05:03:52.704Z,2.25
2022-12-19T05:06:24.436Z,4.45
2022-12-19T05:08:52.747Z,4.05
2022-12-19T05:11:21.165Z,3.92
2022-12-19T05:13:50.997Z,2.92
2022-12-19T05:16:19.519Z,3.50
2022-12-19T05:18:48.183Z,3.83
2022-12-19T05:21:18.192Z,4.30
2022-12-19T05:23:50.402Z,3.78
2022-12-19T05:26:18.869Z,4.10
2022-12-19T05:28:47.198Z,3.60
2022-12-19T05:31:17.329Z,4.05
2022-12-19T05:33:45.786Z,4.50
2022-12-19T05:36:15.744Z,4.05
2022-12-19T05:38:44.259Z,3.70
2022-12-19T05:41:16.187Z,4.20
2022-12-19T05:43:45.041Z,4.32
2022-12-19T05:46:13.919Z,3.55
2022-12-19T05:48:42.584Z,3.15
2022-12-19T05:51:16.013Z,3.90
2022-12-19T05:53:47.119Z,4.20
2022-12-19T05:56:19.018Z,2.67
2022-12-19T05:58:47.948Z,3.67
2022-12-19T06:01:18.424Z,3.47
2022-12-19T06:03:47.000Z,3.53
2022-12-19T06:06:17.259Z,3.47
2022-12-19T06:08:49.086Z,3.47
2022-12-19T06:11:18.860Z,3.10
2022-12-19T06:13:47.299Z,4.25
2022-12-19T06:16:17.221Z,2.67
2022-12-19T06:18:49.114Z,2.75
2022-12-19T06:21:19.373Z,2.50
2022-12-19T06:23:49.560Z,2.92
2022-12-19T06:26:23.314Z,3.30
2022-12-19T06:28:53.355Z,3.80
2022-12-19T06:31:23.228Z,3.28
2022-12-19T06:33:54.045Z,2.88
2022-12-19T06:36:24.605Z,1.95
2022-12-19T06:38:58.155Z,3.28
2022-12-19T06:41:46.306Z,3.42
2022-12-19T06:44:15.995Z,3.25
2022-12-19T06:46:47.002Z,2.80
2022-12-19T06:49:15.835Z,3.25
2022-12-19T06:51:47.538Z,3.20
2022-12-19T06:54:16.413Z,3.17
2022-12-19T06:56:47.102Z,3.42
2022-12-19T06:59:21.312Z,4.13
2022-12-19T07:01:57.578Z,2.35
2022-12-19T07:04:31.020Z,3.10
2022-12-19T07:06:59.883Z,3.90
2022-12-19T07:09:35.799Z,3.22
2022-12-19T07:12:10.360Z,3.65
2022-12-19T07:14:41.612Z,4.78
2022-12-19T07:17:14.709Z,3.67
2022-12-19T07:19:44.988Z,3.35
2022-12-19T07:22:14.248Z,2.90
2022-12-19T07:24:46.121Z,2.58
2022-12-19T07:27:17.841Z,2.17
2022-12-19T07:29:47.518Z,3.13
2022-12-19T07:32:22.187Z,4.07
2022-12-19T07:34:58.437Z,3.40
2022-12-19T07:37:27.048Z,3.10
2022-12-19T07:39:59.267Z,2.33
2022-12-19T07:42:32.869Z,3.45
2022-12-19T07:45:02.609Z,3.15
2022-12-19T07:47:32.751Z,3.72
2022-12-19T07:50:04.389Z,2.97
2022-12-19T07:52:34.871Z,3.50
2022-12-19T07:55:06.602Z,3.33
2022-12-19T07:57:36.498Z,3.38
2022-12-19T08:00:06.892Z,3.50
2022-12-19T08:02:42.324Z,3.13
2022-12-19T08:05:13.729Z,3.47
2022-12-19T08:07:42.570Z,3.50
2022-12-19T08:10:19.410Z,2.88
2022-12-19T08:15:22.061Z,3.63
2022-12-19T08:17:52.469Z,3.50
2022-12-19T08:20:21.555Z,3.78
2022-12-19T08:22:50.006Z,2.92
2022-12-19T08:25:19.845Z,3.78
2022-12-19T08:27:49.620Z,2.65
2022-12-19T08:30:19.328Z,3.17
2022-12-19T08:32:49.855Z,3.28
2022-12-19T08:35:25.137Z,3.53
2022-12-19T08:37:54.566Z,4.13
2022-12-19T08:40:23.382Z,4.50
2022-12-19T08:42:56.686Z,3.40
2022-12-19T08:45:27.421Z,4.68
2022-12-19T08:48:29.317Z,3.22
2022-12-19T08:50:54.666Z,2.92
2022-12-19T08:53:26.457Z,3.45
2022-12-19T08:55:59.553Z,3.83
2022-12-19T08:58:30.846Z,3.63
2022-12-19T09:01:05.350Z,3.53
2022-12-19T09:03:44.182Z,3.40
2022-12-19T09:06:23.778Z,2.92
2022-12-19T09:08:52.593Z,3.50
2022-12-19T09:11:23.152Z,3.55
2022-12-19T09:13:55.071Z,3.53
2022-12-19T09:16:28.159Z,3.60
2022-12-19T09:19:02.468Z,4.32
2022-12-19T09:21:31.324Z,3.90
2022-12-19T09:24:07.659Z,2.95
2022-12-19T09:26:38.345Z,4.63
2022-12-19T09:29:20.769Z,3.90
2022-12-19T09:31:56.501Z,4.18
2022-12-19T09:34:33.013Z,3.78
2022-12-19T09:37:09.007Z,3.63
2022-12-19T09:39:43.720Z,3.47
2022-12-19T09:42:30.448Z,3.33
2022-12-19T09:45:16.145Z,3.85
2022-12-19T09:48:00.645Z,4.47
2022-12-19T09:50:34.747Z,3.65
2022-12-19T09:53:09.993Z,4.65
2022-12-19T09:55:41.957Z,3.75
2022-12-19T09:58:15.360Z,4.45
2022-12-19T10:00:59.822Z,4.32
2022-12-19T10:03:38.747Z,3.75
2022-12-19T10:07:10.625Z,3.60
2022-12-19T10:10:32.906Z,4.30
2022-12-19T10:12:43.925Z,3.55
2022-12-19T10:15:26.258Z,2.88
2022-12-19T10:18:08.853Z,5.45
2022-12-19T10:20:39.840Z,3.55
2022-12-19T10:23:26.124Z,3.95
2022-12-19T10:26:01.235Z,3.25
2022-12-19T10:28:48.139Z,3.75
2022-12-19T10:31:22.629Z,3.65
2022-12-19T10:33:58.758Z,3.85
2022-12-19T10:37:04.003Z,3.80
2022-12-19T10:39:23.776Z,3.80
2022-12-19T10:41:56.501Z,2.72
2022-12-19T10:44:26.648Z,3.53
2022-12-19T10:46:55.317Z,4.68
2022-12-19T10:49:27.640Z,4.10
2022-12-19T10:52:00.235Z,3.85
2022-12-19T10:54:39.915Z,4.68
2022-12-19T10:57:20.691Z,4.00
2022-12-19T11:00:04.206Z,2.67
2022-12-19T11:02:45.403Z,3.78
2022-12-19T11:05:29.922Z,3.45
2022-12-19T11:08:04.140Z,3.85
2022-12-19T11:12:25.272Z,4.75
2022-12-19T11:17:08.107Z,3.90
2022-12-19T11:23:51.537Z,4.70
2022-12-19T11:29:17.532Z,4.32
2022-12-19T11:29:42.811Z,3.28
2022-12-19T11:30:08.862Z,4.50
2022-12-19T11:30:38.170Z,4.28
2022-12-19T11:32:14.186Z,4.85
2022-12-19T11:33:55.379Z,4.30
2022-12-19T11:36:31.073Z,5.57
2022-12-19T11:39:01.286Z,3.60
2022-12-19T11:41:34.271Z,4.25
2022-12-19T11:44:07.126Z,4.00
2022-12-19T11:46:40.301Z,4.00
2022-12-19T11:49:13.592Z,5.45
2022-12-19T11:51:45.371Z,4.43
2022-12-19T11:54:20.598Z,4.15
2022-12-19T11:56:53.888Z,4.63
2022-12-19T11:59:28.551Z,4.50
2022-12-19T12:02:05.014Z,4.57
2022-12-19T12:05:21.865Z,3.80
2022-12-19T12:09:50.114Z,4.22
2022-12-19T12:14:34.606Z,4.47
2022-12-19T12:23:54.796Z,5.10
2022-12-19T12:28:53.398Z,4.80
2022-12-19T12:31:16.640Z,3.97
2022-12-19T12:31:18.800Z,5.75
2022-12-19T12:31:40.799Z,5.10
2022-12-19T12:32:05.068Z,3.80
2022-12-19T12:35:43.565Z,4.53
2022-12-19T12:35:51.513Z,4.18
2022-12-19T12:38:23.668Z,4.72
2022-12-19T12:41:03.720Z,4.53
2022-12-19T12:43:47.562Z,4.57
2022-12-19T12:46:23.822Z,3.80
2022-12-19T12:48:55.349Z,4.15
2022-12-19T12:51:24.789Z,4.68
2022-12-19T12:53:57.134Z,4.80
2022-12-19T12:56:28.575Z,4.35
2022-12-19T12:59:20.308Z,5.00
2022-12-19T13:01:52.702Z,4.72
2022-12-19T13:04:37.133Z,4.50
2022-12-19T13:07:20.973Z,4.72
2022-12-19T13:09:56.660Z,4.65
2022-12-19T13:12:46.756Z,4.75
2022-12-19T13:15:40.801Z,5.05
2022-12-19T13:18:15.189Z,4.90
2022-12-19T13:20:46.731Z,5.15
2022-12-19T13:23:24.097Z,4.70
2022-12-19T13:25:56.903Z,4.55
2022-12-19T13:28:43.560Z,5.32
2022-12-19T13:31:24.874Z,5.32
2022-12-19T13:34:19.304Z,5.53
2022-12-19T13:39:57.716Z,4.97
2022-12-19T13:40:08.966Z,6.25
2022-12-19T13:43:10.845Z,5.55
2022-12-19T13:45:42.466Z,5.38
2022-12-19T13:48:17.251Z,4.78
2022-12-19T13:50:49.723Z,5.45
2022-12-19T13:53:19.210Z,4.40
2022-12-19T13:55:47.697Z,6.35
2022-12-19T13:58:28.937Z,6.38
2022-12-19T14:01:07.827Z,4.65
2022-12-19T14:03:53.355Z,5.65
2022-12-19T14:06:24.098Z,5.43
2022-12-19T14:09:37.323Z,5.60
2022-12-19T14:12:26.483Z,5.68
2022-12-19T14:15:12.731Z,4.32
2022-12-19T14:17:42.495Z,5.03
2022-12-19T14:22:02.784Z,5.60
2022-12-19T14:23:08.347Z,5.75
2022-12-19T14:28:14.511Z,4.15
2022-12-19T14:28:39.373Z,4.75
2022-12-19T14:31:10.363Z,3.95
2022-12-19T14:34:04.220Z,4.43
2022-12-19T14:36:33.324Z,4.93
2022-12-19T14:39:23.498Z,4.32
2022-12-19T14:42:10.043Z,5.18
2022-12-19T14:52:51.930Z,5.20
2022-12-19T14:54:03.587Z,4.68
2022-12-19T14:54:11.822Z,5.47
2022-12-19T14:54:39.880Z,4.65
2022-12-19T14:56:40.665Z,5.70
2022-12-19T14:59:08.702Z,4.53
2022-12-19T15:01:39.644Z,4.78
2022-12-19T15:04:51.953Z,5.60
2022-12-19T15:07:12.302Z,4.28
2022-12-19T15:11:04.091Z,3.92
2022-12-19T15:14:50.871Z,4.40
2022-12-19T15:15:59.072Z,4.88
2022-12-19T15:18:29.469Z,4.72
2022-12-19T15:20:59.273Z,4.72
2022-12-19T15:23:30.693Z,5.47
2022-12-19T15:26:05.756Z,5.50
2022-12-19T15:28:39.554Z,4.35
2022-12-19T15:31:25.449Z,4.47
2022-12-19T15:36:45.730Z,5.32
2022-12-19T15:39:16.231Z,5.82
2022-12-19T15:41:45.365Z,4.38
2022-12-19T15:44:18.229Z,5.82
2022-12-19T15:46:50.400Z,5.10
2022-12-19T15:49:22.356Z,5.03
2022-12-19T15:51:51.447Z,6.50
2022-12-19T15:54:47.808Z,6.15
2022-12-19T15:57:18.366Z,5.07
2022-12-19T15:59:47.087Z,4.22
2022-12-19T16:02:20.835Z,5.07
2022-12-19T16:04:55.551Z,5.80
2022-12-19T16:07:28.971Z,5.57
2022-12-19T16:09:59.487Z,5.00
2022-12-19T16:12:34.168Z,5.57
2022-12-19T16:15:08.048Z,4.88
2022-12-19T16:17:37.129Z,5.63
2022-12-19T16:20:17.053Z,4.20
2022-12-19T16:22:46.788Z,4.05
2022-12-19T16:25:17.144Z,4.70
2022-12-19T16:27:46.963Z,4.18
2022-12-19T16:30:20.571Z,4.97
2022-12-19T16:32:49.158Z,4.82
2022-12-19T16:35:40.183Z,3.92
2022-12-19T16:38:11.495Z,4.68
2022-12-19T16:40:41.519Z,5.43
2022-12-19T16:43:15.668Z,4.43
2022-12-19T16:45:45.576Z,5.18
2022-12-19T16:48:20.469Z,5.05
2022-12-19T16:50:51.967Z,5.22
2022-12-19T16:53:24.138Z,4.30
2022-12-19T16:55:56.225Z,4.47
2022-12-19T16:58:28.321Z,4.97
2022-12-19T17:01:01.525Z,5.13
2022-12-19T17:03:34.743Z,3.90
2022-12-19T17:06:03.753Z,6.63
2022-12-19T17:08:38.111Z,4.05
2022-12-19T17:11:14.723Z,5.32
2022-12-19T17:13:43.647Z,5.13
2022-12-19T17:16:12.640Z,4.70
2022-12-19T17:18:43.042Z,6.38
2022-12-19T17:21:18.596Z,4.47
2022-12-19T17:23:47.727Z,5.13
2022-12-19T17:26:18.582Z,4.82
2022-12-19T17:28:48.494Z,5.07
2022-12-19T17:31:24.139Z,5.00
2022-12-19T17:33:53.222Z,4.13
2022-12-19T17:36:26.030Z,4.00
2022-12-19T17:38:56.580Z,4.82
2022-12-19T17:41:27.000Z,5.30
2022-12-19T17:43:56.614Z,4.88
2022-12-19T17:46:25.784Z,3.75
2022-12-19T17:48:54.773Z,4.00
2022-12-19T17:51:25.085Z,4.35
2022-12-19T17:53:54.086Z,4.55
2022-12-19T17:56:22.814Z,4.25
2022-12-19T17:58:53.529Z,5.30
2022-12-19T18:01:24.351Z,4.50
2022-12-19T18:03:56.323Z,4.00
2022-12-19T18:06:25.221Z,4.03
2022-12-19T18:08:53.676Z,4.75
2022-12-19T18:11:24.628Z,5.50
2022-12-19T18:14:23.756Z,3.80
2022-12-19T18:16:52.444Z,5.20
2022-12-19T18:19:22.505Z,5.03
2022-12-19T18:21:50.971Z,2.95
2022-12-19T18:24:19.685Z,3.55
2022-12-19T18:26:48.224Z,4.18
2022-12-19T18:29:22.132Z,4.30
2022-12-19T18:31:53.664Z,4.40
2022-12-19T18:34:27.435Z,4.47
2022-12-19T18:36:57.728Z,3.65
2022-12-19T18:39:27.599Z,4.18
2022-12-19T18:41:56.397Z,4.50
2022-12-19T18:44:26.520Z,4.30
2022-12-19T18:47:02.348Z,4.43
2022-12-19T18:49:34.856Z,3.85
2022-12-19T18:52:03.418Z,4.22
2022-12-19T18:54:32.036Z,3.95
2022-12-19T18:57:00.628Z,4.28
2022-12-19T18:59:30.905Z,3.53
2022-12-19T19:02:00.861Z,3.08
2022-12-19T19:04:35.001Z,4.30
2022-12-19T19:07:03.581Z,4.63
2022-12-19T19:09:32.057Z,3.13
2022-12-19T19:12:31.507Z,3.03
2022-12-19T19:15:01.801Z,4.63
2022-12-19T19:17:32.863Z,3.50
2022-12-19T19:20:04.032Z,3.80
2022-12-19T19:22:37.673Z,4.32
2022-12-19T19:25:11.185Z,4.38
2022-12-19T19:27:41.793Z,3.65
2022-12-19T19:30:13.724Z,3.20
2022-12-19T19:32:46.136Z,3.47
2022-12-19T19:35:20.380Z,4.70
2022-12-19T19:37:51.198Z,3.92
2022-12-19T19:40:23.564Z,4.22
2022-12-19T19:42:53.160Z,4.03
2022-12-19T19:45:24.648Z,4.20
2022-12-19T19:47:58.174Z,3.25
2022-12-19T19:50:26.737Z,4.35
2022-12-19T19:52:55.247Z,3.67
2022-12-19T19:55:24.082Z,3.75
2022-12-19T19:57:52.907Z,3.58
2022-12-19T20:00:24.007Z,3.33
2022-12-19T20:02:52.856Z,3.30
2022-12-19T20:05:23.276Z,3.40
2022-12-19T20:07:51.657Z,3.72
2022-12-19T20:10:20.604Z,3.38
2022-12-19T20:12:49.906Z,3.03
2022-12-19T20:15:18.491Z,3.65
2022-12-19T20:17:51.729Z,2.83
2022-12-19T20:20:20.192Z,3.28
2022-12-19T20:22:52.430Z,3.28
2022-12-19T20:25:24.987Z,3.55
2022-12-19T20:27:55.416Z,2.70
2022-12-19T20:30:24.107Z,3.20
2022-12-19T20:33:03.414Z,2.47
2022-12-19T20:35:34.885Z,2.33
2022-12-19T20:38:03.363Z,3.95
2022-12-19T20:40:31.755Z,3.17
2022-12-19T20:43:06.483Z,3.05
2022-12-19T20:45:37.584Z,3.10
2022-12-19T20:48:07.680Z,3.10
2022-12-19T20:50:42.696Z,4.15
2022-12-19T20:53:11.517Z,3.15
2022-12-19T20:55:41.217Z,3.58
2022-12-19T20:58:09.715Z,3.58
2022-12-19T21:00:38.324Z,2.63
2022-12-19T21:05:57.406Z,3.40
2022-12-19T21:08:27.561Z,3.45
2022-12-19T21:11:10.397Z,2.75
2022-12-19T21:13:39.644Z,3.60
2022-12-19T21:16:10.071Z,3.83
2022-12-19T21:18:44.966Z,4.57
2022-12-19T21:21:16.626Z,3.63
2022-12-19T21:23:47.770Z,3.72
2022-12-19T21:26:19.385Z,3.25
2022-12-19T21:28:48.028Z,3.08
2022-12-19T21:31:18.998Z,4.15
2022-12-19T21:33:49.634Z,4.38
2022-12-19T21:36:20.462Z,3.90
2022-12-19T21:38:49.883Z,4.13
2022-12-19T21:41:22.621Z,3.53
2022-12-19T21:43:54.258Z,3.33
2022-12-19T21:46:24.574Z,3.65
2022-12-19T21:48:58.901Z,4.05
2022-12-19T21:51:31.650Z,3.50
2022-12-19T21:54:01.632Z,3.67
2022-12-19T21:56:32.963Z,3.13
2022-12-19T21:59:04.641Z,4.45
2022-12-19T22:01:33.727Z,4.20
2022-12-19T22:04:06.590Z,4.07
2022-12-19T22:06:41.209Z,3.63
2022-12-19T22:09:13.827Z,3.75
2022-12-19T22:11:45.978Z,4.00
2022-12-19T22:14:16.195Z,3.28
2022-12-19T22:16:44.799Z,4.22
2022-12-19T22:19:16.638Z,3.75
2022-12-19T22:21:45.478Z,4.18
2022-12-19T22:24:34.360Z,2.95
2022-12-19T22:27:05.356Z,3.60
2022-12-19T22:29:38.873Z,3.70
2022-12-19T22:32:09.755Z,3.28
2022-12-19T22:34:42.214Z,4.13
2022-12-19T22:37:13.334Z,3.10
2022-12-19T22:39:43.593Z,3.03
2022-12-19T22:42:11.997Z,4.10
2022-12-19T22:44:42.355Z,3.75
2022-12-19T22:47:15.831Z,3.58
2022-12-19T22:49:58.883Z,3.00
2022-12-19T22:52:29.209Z,3.10
2022-12-19T22:55:00.023Z,3.78
2022-12-19T22:57:29.578Z,3.38
2022-12-19T23:00:03.286Z,3.83
2022-12-19T23:02:32.899Z,3.10
2022-12-19T23:05:02.898Z,3.40
2022-12-19T23:07:34.916Z,3.10
2022-12-19T23:10:04.156Z,3.42
2022-12-19T23:12:37.275Z,3.38
2022-12-19T23:15:06.441Z,3.72
2022-12-19T23:17:34.899Z,3.60
2022-12-19T23:20:08.752Z,3.78
2022-12-19T23:22:38.295Z,3.83
2022-12-19T23:25:07.965Z,3.65
2022-12-19T23:27:36.323Z,2.78
2022-12-19T23:30:08.388Z,3.50
2022-12-19T23:32:37.891Z,2.97
2022-12-19T23:35:08.182Z,3.45
2022-12-19T23:37:36.509Z,3.92
2022-12-19T23:40:06.578Z,3.78
2022-12-19T23:42:37.563Z,4.03
2022-12-19T23:45:07.122Z,3.95
2022-12-19T23:47:43.543Z,3.20
2022-12-19T23:50:18.896Z,3.63
2022-12-19T23:55:15.439Z,3.80
2022-12-19T23:57:58.295Z,3.72
